createdAt,value
2019-01-19T00:02:16.202Z,69.00
2019-01-19T00:07:27.597Z,68.85
2019-01-19T00:12:33.007Z,68.78
2019-01-19T00:17:44.170Z,68.85
2019-01-19T00:22:52.311Z,68.77
2019-01-19T00:27:54.772Z,68.53
2019-01-19T00:33:15.797Z,68.54
2019-01-19T00:38:36.641Z,68.52
2019-01-19T00:43:39.096Z,68.17
2019-01-19T00:48:44.223Z,67.98
2019-01-19T00:53:46.686Z,67.87
2019-01-19T00:58:49.212Z,67.56
2019-01-19T01:04:00.400Z,67.71
2019-01-19T01:09:24.454Z,67.67
2019-01-19T01:14:51.131Z,67.56
2019-01-19T01:19:56.323Z,67.43
2019-01-19T01:25:10.798Z,67.53
2019-01-19T01:30:31.002Z,67.45
2019-01-19T01:36:06.771Z,67.46
2019-01-19T01:41:23.801Z,67.40
2019-01-19T01:46:34.951Z,67.28
2019-01-19T01:51:40.372Z,67.22
2019-01-19T01:56:42.843Z,67.12
2019-01-19T02:02:03.096Z,67.27
2019-01-19T02:07:05.564Z,67.36
2019-01-19T02:12:35.215Z,67.27
2019-01-19T02:17:37.669Z,67.45
2019-01-19T02:23:07.914Z,67.38
2019-01-19T02:28:10.379Z,67.31
2019-01-19T02:33:34.486Z,67.41
2019-01-19T02:38:39.644Z,67.60
2019-01-19T02:43:42.091Z,67.42
2019-01-19T02:49:02.366Z,67.52
2019-01-19T02:54:04.825Z,67.34
2019-01-19T02:59:16.041Z,67.31
2019-01-19T03:04:27.271Z,67.34
2019-01-19T03:09:50.882Z,67.39
2019-01-19T03:14:53.352Z,67.47
2019-01-19T03:19:55.823Z,67.71
2019-01-19T03:25:01.307Z,67.39
2019-01-19T03:30:15.833Z,67.42
2019-01-19T03:35:27.044Z,67.44
2019-01-19T03:40:38.173Z,67.56
2019-01-19T03:45:40.633Z,67.48
2019-01-19T03:50:43.094Z,67.53
2019-01-19T03:56:06.951Z,67.49
2019-01-19T04:01:30.456Z,67.70
2019-01-19T04:07:03.066Z,67.82
2019-01-19T04:12:17.323Z,67.85
2019-01-19T04:17:37.693Z,67.82
2019-01-19T04:22:40.138Z,67.78
2019-01-19T04:27:42.619Z,67.82
2019-01-19T04:32:45.066Z,68.02
2019-01-19T04:37:47.547Z,67.99
2019-01-19T04:42:49.997Z,67.78
2019-01-19T04:47:52.448Z,67.92
2019-01-19T04:52:54.907Z,67.74
2019-01-19T04:57:57.358Z,67.71
2019-01-19T05:02:59.813Z,67.78
2019-01-19T05:08:02.259Z,67.93
2019-01-19T05:13:04.727Z,67.78
2019-01-19T05:18:07.189Z,67.70
2019-01-19T05:23:10.805Z,67.94
2019-01-19T05:28:12.109Z,67.93
2019-01-19T05:33:14.566Z,68.02
2019-01-19T05:38:17.046Z,67.99
2019-01-19T05:43:19.512Z,68.07
2019-01-19T05:48:21.980Z,67.82
2019-01-19T05:53:24.470Z,67.73
2019-01-19T05:58:26.927Z,67.67
2019-01-19T06:03:29.396Z,67.69
2019-01-19T06:08:31.854Z,67.82
2019-01-19T06:13:34.304Z,67.90
2019-01-19T06:18:36.790Z,67.76
2019-01-19T06:23:39.243Z,67.73
2019-01-19T06:28:41.708Z,68.16
2019-01-19T06:33:44.174Z,67.82
2019-01-19T06:38:46.657Z,68.18
2019-01-19T06:43:49.096Z,68.27
2019-01-19T06:48:51.559Z,68.32
2019-01-19T06:54:01.318Z,68.24
2019-01-19T06:58:56.495Z,68.20
2019-01-19T07:03:58.964Z,68.18
2019-01-19T07:09:01.426Z,68.06
2019-01-19T07:14:03.910Z,68.03
2019-01-19T07:19:06.366Z,67.90
2019-01-19T07:24:08.810Z,67.91
2019-01-19T07:29:11.276Z,67.88
2019-01-19T07:34:13.751Z,67.93
2019-01-19T07:39:16.214Z,67.76
2019-01-19T07:44:18.681Z,67.54
2019-01-19T07:49:21.150Z,67.32
2019-01-19T07:54:23.618Z,67.51
2019-01-19T07:59:26.062Z,67.21
2019-01-19T08:04:28.556Z,67.01
2019-01-19T08:09:31.019Z,66.72
2019-01-19T08:14:33.478Z,66.54
2019-01-19T08:19:35.955Z,66.06
2019-01-19T08:24:38.397Z,65.52
2019-01-19T08:29:40.853Z,65.08
2019-01-19T08:34:43.509Z,64.53
2019-01-19T08:39:45.953Z,64.04
2019-01-19T08:44:48.410Z,63.30
2019-01-19T08:49:50.871Z,62.67
2019-01-19T08:54:53.359Z,62.04
2019-01-19T08:59:55.795Z,61.33
2019-01-19T09:04:58.310Z,60.71
2019-01-19T09:10:00.764Z,59.04
2019-01-19T09:15:03.217Z,56.34
2019-01-19T09:20:05.683Z,56.47
2019-01-19T09:25:08.149Z,55.67
2019-01-19T09:30:19.412Z,53.87
2019-01-19T09:35:21.893Z,54.38
2019-01-19T09:40:24.577Z,57.20
2019-01-19T09:45:26.840Z,57.75
2019-01-19T09:50:29.324Z,57.85
2019-01-19T09:55:31.803Z,57.83
2019-01-19T10:00:36.655Z,57.58
2019-01-19T10:05:36.723Z,57.72
2019-01-19T10:10:39.182Z,57.73
2019-01-19T10:15:41.651Z,57.40
2019-01-19T10:20:44.109Z,57.36
2019-01-19T10:25:46.584Z,57.23
2019-01-19T10:30:49.071Z,57.23
2019-01-19T10:35:51.545Z,57.71
2019-01-19T10:40:54.002Z,57.74
2019-01-19T10:45:56.462Z,57.88
2019-01-19T10:50:58.963Z,57.56
2019-01-19T10:56:01.436Z,57.34
2019-01-19T11:01:03.902Z,57.83
2019-01-19T11:06:06.375Z,57.35
2019-01-19T11:11:08.857Z,57.34
2019-01-19T11:16:11.325Z,56.93
2019-01-19T11:21:13.798Z,56.29
2019-01-19T11:26:16.261Z,56.00
2019-01-19T11:31:18.739Z,56.37
2019-01-19T11:36:21.259Z,56.35
2019-01-19T11:41:23.731Z,56.13
2019-01-19T11:46:26.187Z,55.93
2019-01-19T11:51:28.666Z,55.86
2019-01-19T11:56:31.132Z,55.97
2019-01-19T12:01:33.586Z,56.14
2019-01-19T12:06:36.072Z,55.78
2019-01-19T12:11:38.584Z,54.83
2019-01-19T12:16:41.018Z,54.61
2019-01-19T12:21:43.520Z,54.27
2019-01-19T12:26:45.990Z,54.78
2019-01-19T12:31:48.465Z,54.51
2019-01-19T12:36:50.933Z,54.74
2019-01-19T12:41:53.396Z,54.63
2019-01-19T12:46:57.011Z,54.71
2019-01-19T12:51:58.393Z,54.98
2019-01-19T12:57:01.923Z,55.36
2019-01-19T13:02:04.487Z,55.39
2019-01-19T13:07:06.955Z,55.23
2019-01-19T13:12:09.486Z,55.42
2019-01-19T13:17:35.877Z,55.65
2019-01-19T13:22:50.380Z,54.63
2019-01-19T13:28:01.709Z,55.10
2019-01-19T13:33:04.166Z,56.02
2019-01-19T13:38:21.661Z,56.14
2019-01-19T13:43:57.666Z,56.29
2019-01-19T13:49:14.739Z,56.03
2019-01-19T13:54:26.052Z,56.08
2019-01-19T13:59:31.266Z,56.28
2019-01-19T14:04:33.740Z,56.26
2019-01-19T14:09:39.094Z,56.30
2019-01-19T14:14:44.457Z,56.14
2019-01-19T14:20:09.373Z,56.09
2019-01-19T14:25:23.497Z,56.21
2019-01-19T14:30:29.095Z,56.31
2019-01-19T14:35:43.517Z,56.44
2019-01-19T14:41:06.893Z,56.34
2019-01-19T14:46:46.197Z,56.24
2019-01-19T14:52:06.756Z,56.29
2019-01-19T14:57:15.257Z,56.57
2019-01-19T15:02:32.996Z,56.60
2019-01-19T15:07:37.964Z,56.91
2019-01-19T15:12:59.127Z,57.04
2019-01-19T15:18:07.330Z,57.39
2019-01-19T15:23:27.916Z,57.52
2019-01-19T15:28:48.832Z,57.59
2019-01-19T15:34:13.136Z,57.66
2019-01-19T15:39:30.641Z,57.95
2019-01-19T15:44:39.061Z,58.42
2019-01-19T15:50:06.160Z,58.57
2019-01-19T15:55:08.621Z,58.79
2019-01-19T16:00:26.348Z,58.91
2019-01-19T16:05:46.880Z,59.17
2019-01-19T16:11:01.382Z,59.58
2019-01-19T16:16:31.267Z,59.91
2019-01-19T16:21:51.749Z,60.02
2019-01-19T16:27:06.470Z,60.36
2019-01-19T16:32:27.441Z,60.64
2019-01-19T16:37:38.922Z,60.77
2019-01-19T16:43:02.737Z,61.11
2019-01-19T16:48:29.510Z,61.35
2019-01-19T16:53:31.999Z,61.65
2019-01-19T16:58:46.445Z,61.58
2019-01-19T17:03:51.852Z,62.00
2019-01-19T17:09:15.884Z,62.20
2019-01-19T17:14:43.240Z,62.30
2019-01-19T17:19:54.654Z,62.48
2019-01-19T17:25:09.007Z,62.71
2019-01-19T17:30:20.435Z,63.06
2019-01-19T17:35:22.898Z,62.81
2019-01-19T17:40:46.743Z,62.75
2019-01-19T17:46:03.974Z,63.00
2019-01-19T17:51:18.247Z,63.15
2019-01-19T17:56:29.714Z,63.24
2019-01-19T18:01:37.957Z,63.46
2019-01-19T18:07:07.470Z,63.57
2019-01-19T18:12:21.801Z,63.62
2019-01-19T18:17:24.264Z,63.63
2019-01-19T18:22:35.473Z,63.63
2019-01-19T18:27:48.085Z,63.67
2019-01-19T18:33:16.382Z,63.75
2019-01-19T18:38:30.677Z,64.01
2019-01-19T18:43:48.144Z,64.12
2019-01-19T18:49:11.810Z,64.36
2019-01-19T18:54:14.285Z,64.39
2019-01-19T18:59:16.759Z,64.39
2019-01-19T19:04:25.201Z,64.57
2019-01-19T19:09:37.019Z,64.78
2019-01-19T19:15:12.920Z,64.79
2019-01-19T19:20:18.095Z,64.80
2019-01-19T19:25:20.577Z,64.63
2019-01-19T19:30:25.807Z,64.81
2019-01-19T19:35:37.159Z,64.85
2019-01-19T19:40:51.563Z,64.92
2019-01-19T19:45:54.050Z,64.98
2019-01-19T19:51:33.336Z,65.24
2019-01-19T19:56:35.277Z,65.21
2019-01-19T20:01:37.775Z,65.40
2019-01-19T20:06:40.317Z,65.48
2019-01-19T20:11:42.789Z,65.28
2019-01-19T20:16:45.490Z,65.29
2019-01-19T20:21:47.952Z,65.19
2019-01-19T20:26:50.434Z,65.14
2019-01-19T20:31:52.923Z,65.46
2019-01-19T20:36:55.389Z,65.36
2019-01-19T20:41:57.890Z,65.32
2019-01-19T20:47:00.433Z,65.52
2019-01-19T20:52:05.628Z,65.36
2019-01-19T20:57:08.103Z,65.35
2019-01-19T21:02:10.592Z,65.37
2019-01-19T21:07:13.087Z,65.45
2019-01-19T21:12:15.572Z,65.56
2019-01-19T21:17:18.114Z,65.58
2019-01-19T21:22:20.544Z,65.68
2019-01-19T21:27:23.017Z,65.67
2019-01-19T21:32:25.489Z,65.67
2019-01-19T21:37:28.054Z,65.82
2019-01-19T21:42:30.539Z,65.63
2019-01-19T21:47:33.014Z,65.68
2019-01-19T21:52:35.532Z,66.08
2019-01-19T21:57:37.965Z,66.30
2019-01-19T22:02:40.456Z,66.23
2019-01-19T22:07:42.946Z,66.10
2019-01-19T22:12:45.425Z,66.05
2019-01-19T22:17:47.938Z,66.05
2019-01-19T22:22:50.418Z,66.18
2019-01-19T22:27:54.924Z,66.01
2019-01-19T22:32:55.659Z,66.18
2019-01-19T22:37:58.101Z,66.00
2019-01-19T22:43:01.409Z,66.01
2019-01-19T22:48:03.907Z,66.33
2019-01-19T22:53:06.378Z,66.27
2019-01-19T22:58:08.873Z,66.26
2019-01-19T23:03:11.339Z,66.35
2019-01-19T23:08:13.821Z,66.22
2019-01-19T23:13:16.280Z,66.52
2019-01-19T23:18:18.768Z,66.57
2019-01-19T23:23:21.292Z,66.43
2019-01-19T23:28:23.708Z,66.64
2019-01-19T23:33:26.166Z,66.63
2019-01-19T23:38:28.665Z,66.54
2019-01-19T23:43:31.137Z,66.53
2019-01-19T23:48:33.666Z,66.62
2019-01-19T23:53:36.154Z,66.79
2019-01-19T23:58:38.624Z,66.74
